createdAt,value
2018-02-17T00:01:37.713Z,30.03
2018-02-17T00:04:05.222Z,23.83
2018-02-17T00:06:32.703Z,26.20
2018-02-17T00:09:00.223Z,26.47
2018-02-17T00:11:28.497Z,26.03
2018-02-17T00:13:55.974Z,21.90
2018-02-17T00:16:24.213Z,30.80
2018-02-17T00:18:51.715Z,24.17
2018-02-17T00:21:19.198Z,26.60
2018-02-17T00:23:46.694Z,20.10
2018-02-17T00:26:14.164Z,27.60
2018-02-17T00:28:41.672Z,20.53
2018-02-17T00:31:09.682Z,21.53
2018-02-17T00:33:37.168Z,20.63
2018-02-17T00:36:05.454Z,22.83
2018-02-17T00:38:33.698Z,17.20
2018-02-17T00:41:01.178Z,32.43
2018-02-17T00:43:28.638Z,22.87
2018-02-17T00:45:56.123Z,17.43
2018-02-17T00:48:24.368Z,19.17
2018-02-17T00:50:51.886Z,24.07
2018-02-17T00:53:19.353Z,26.90
2018-02-17T00:55:46.839Z,20.20
2018-02-17T00:58:14.304Z,28.17
2018-02-17T01:00:41.804Z,27.80
2018-02-17T01:03:09.291Z,23.67
2018-02-17T01:05:36.774Z,18.40
2018-02-17T01:08:04.292Z,26.97
2018-02-17T01:10:31.756Z,35.67
2018-02-17T01:12:59.248Z,37.20
2018-02-17T01:15:26.754Z,32.13
2018-02-17T01:17:54.996Z,34.80
2018-02-17T01:20:22.456Z,23.00
2018-02-17T01:22:49.951Z,25.83
2018-02-17T01:25:18.192Z,23.50
2018-02-17T01:27:45.678Z,32.60
2018-02-17T01:30:14.101Z,18.03
2018-02-17T01:32:41.569Z,26.77
2018-02-17T01:35:09.160Z,25.30
2018-02-17T01:37:36.647Z,17.40
2018-02-17T01:40:04.899Z,26.70
2018-02-17T01:42:32.427Z,31.07
2018-02-17T01:44:59.910Z,20.97
2018-02-17T01:47:27.374Z,21.10
2018-02-17T01:49:55.398Z,24.40
2018-02-17T01:52:23.107Z,25.43
2018-02-17T01:54:51.185Z,33.90
2018-02-17T01:57:18.644Z,30.93
2018-02-17T01:59:46.129Z,30.27
2018-02-17T02:02:14.370Z,23.13
2018-02-17T02:04:43.358Z,29.07
2018-02-17T02:07:10.832Z,34.80
2018-02-17T02:09:38.328Z,23.00
2018-02-17T02:12:05.833Z,24.27
2018-02-17T02:14:33.321Z,26.30
2018-02-17T02:17:00.876Z,31.27
2018-02-17T02:19:28.353Z,34.73
2018-02-17T02:21:56.607Z,19.23
2018-02-17T02:24:24.097Z,25.10
2018-02-17T02:26:52.352Z,27.00
2018-02-17T02:29:19.815Z,29.40
2018-02-17T02:31:48.072Z,22.73
2018-02-17T02:34:15.550Z,18.07
2018-02-17T02:36:43.817Z,25.20
2018-02-17T02:39:11.282Z,30.60
2018-02-17T02:41:38.767Z,30.23
2018-02-17T02:44:07.031Z,26.90
2018-02-17T02:46:35.287Z,29.80
2018-02-17T02:49:03.884Z,26.83
2018-02-17T02:51:32.142Z,29.00
2018-02-17T02:54:01.129Z,22.43
2018-02-17T02:56:28.593Z,28.07
2018-02-17T02:58:56.983Z,41.23
2018-02-17T03:01:24.455Z,28.60
2018-02-17T03:03:52.720Z,27.93
2018-02-17T03:06:20.183Z,32.27
2018-02-17T03:08:48.437Z,40.90
2018-02-17T03:11:15.946Z,33.97
2018-02-17T03:13:44.960Z,35.47
2018-02-17T03:16:12.431Z,31.70
2018-02-17T03:18:39.917Z,40.03
2018-02-17T03:21:07.396Z,24.93
2018-02-17T03:23:35.652Z,24.50
2018-02-17T03:26:03.134Z,31.43
2018-02-17T03:28:31.420Z,32.00
2018-02-17T03:30:59.658Z,40.80
2018-02-17T03:33:27.155Z,37.13
2018-02-17T03:35:55.382Z,44.83
2018-02-17T03:38:22.898Z,37.63
2018-02-17T03:40:50.358Z,39.43
2018-02-17T03:43:17.835Z,37.57
2018-02-17T03:45:45.317Z,37.47
2018-02-17T03:48:12.830Z,42.17
2018-02-17T03:50:40.321Z,28.07
2018-02-17T03:53:07.806Z,30.03
2018-02-17T03:55:36.056Z,27.13
2018-02-17T03:58:03.523Z,29.10
2018-02-17T04:00:31.009Z,21.60
2018-02-17T04:02:58.487Z,20.87
2018-02-17T04:05:26.735Z,29.60
2018-02-17T04:07:54.198Z,26.13
2018-02-17T04:10:21.805Z,28.57
2018-02-17T04:12:49.452Z,32.00
2018-02-17T04:15:17.693Z,23.87
2018-02-17T04:17:45.174Z,23.83
2018-02-17T04:20:13.413Z,31.13
2018-02-17T04:22:40.882Z,31.20
2018-02-17T04:25:08.358Z,25.27
2018-02-17T04:27:36.598Z,24.47
2018-02-17T04:30:04.085Z,31.13
2018-02-17T04:32:31.678Z,33.43
2018-02-17T04:34:59.155Z,45.10
2018-02-17T04:37:26.646Z,35.40
2018-02-17T04:42:57.765Z,37.17
2018-02-17T04:45:25.243Z,34.77
2018-02-17T04:50:56.986Z,32.20
2018-02-17T04:53:30.132Z,29.03
2018-02-17T04:56:01.358Z,41.27
2018-02-17T04:58:40.722Z,30.30
2018-02-17T05:04:29.247Z,28.00
2018-02-17T05:06:58.466Z,29.37
2018-02-17T05:09:25.980Z,28.57
2018-02-17T05:11:53.464Z,23.90
2018-02-17T05:14:21.770Z,34.80
2018-02-17T05:16:49.734Z,33.80
2018-02-17T05:19:27.934Z,34.50
2018-02-17T05:22:00.309Z,32.87
2018-02-17T05:24:42.688Z,24.83
2018-02-17T05:27:21.023Z,37.67
2018-02-17T05:29:48.529Z,24.07
2018-02-17T05:32:21.677Z,34.53
2018-02-17T05:34:50.725Z,28.67
2018-02-17T05:37:18.970Z,27.23
2018-02-17T05:39:49.963Z,33.53
2018-02-17T05:42:19.943Z,32.03
2018-02-17T05:48:02.060Z,44.70
2018-02-17T05:50:29.549Z,53.83
2018-02-17T05:52:57.018Z,51.73
2018-02-17T05:55:24.502Z,59.43
2018-02-17T05:57:51.979Z,54.63
2018-02-17T06:00:19.490Z,50.83
2018-02-17T06:02:46.966Z,36.40
2018-02-17T06:05:14.472Z,39.37
2018-02-17T06:07:41.966Z,36.50
2018-02-17T06:10:09.461Z,37.60
2018-02-17T06:12:37.440Z,52.63
2018-02-17T06:15:05.224Z,39.73
2018-02-17T06:17:32.722Z,35.83
2018-02-17T06:20:00.251Z,48.40
2018-02-17T06:22:28.510Z,53.67
2018-02-17T06:24:55.984Z,62.73
2018-02-17T06:27:24.271Z,58.77
2018-02-17T06:29:52.533Z,72.90
2018-02-17T06:32:20.038Z,49.90
2018-02-17T06:34:47.527Z,65.00
2018-02-17T06:37:15.022Z,73.67
2018-02-17T06:39:43.266Z,47.60
2018-02-17T06:42:10.759Z,44.03
2018-02-17T06:44:39.006Z,48.07
2018-02-17T06:47:06.526Z,44.23
2018-02-17T06:49:33.998Z,37.60
2018-02-17T06:52:01.499Z,49.37
2018-02-17T06:54:29.748Z,43.03
2018-02-17T06:56:57.278Z,35.70
2018-02-17T06:59:25.486Z,29.50
2018-02-17T07:01:52.963Z,45.87
2018-02-17T07:04:21.216Z,42.43
2018-02-17T07:06:48.762Z,37.27
2018-02-17T07:09:16.251Z,34.93
2018-02-17T07:11:43.790Z,41.67
2018-02-17T07:14:11.294Z,37.73
2018-02-17T07:16:39.528Z,44.27
2018-02-17T07:19:07.015Z,46.67
2018-02-17T07:21:34.496Z,62.93
2018-02-17T07:24:01.990Z,42.73
2018-02-17T07:26:29.482Z,43.33
2018-02-17T07:28:57.004Z,41.40
2018-02-17T07:31:25.226Z,41.13
2018-02-17T07:33:53.556Z,38.80
2018-02-17T07:36:21.096Z,34.23
2018-02-17T07:38:48.590Z,50.43
2018-02-17T07:41:16.115Z,39.27
2018-02-17T07:43:43.594Z,36.20
2018-02-17T07:46:11.084Z,48.77
2018-02-17T07:48:38.584Z,58.87
2018-02-17T07:51:06.098Z,44.87
2018-02-17T07:53:33.622Z,46.13
2018-02-17T07:56:01.520Z,38.47
2018-02-17T07:58:30.935Z,53.80
2018-02-17T08:00:58.994Z,43.43
2018-02-17T08:03:26.480Z,37.37
2018-02-17T08:05:54.725Z,40.97
2018-02-17T08:08:22.214Z,45.10
2018-02-17T08:10:49.794Z,39.77
2018-02-17T08:13:18.378Z,37.10
2018-02-17T08:15:46.717Z,45.83
2018-02-17T08:18:14.203Z,40.17
2018-02-17T08:20:42.442Z,38.63
2018-02-17T08:23:09.934Z,38.40
2018-02-17T08:25:38.210Z,31.30
2018-02-17T08:28:05.696Z,45.00
2018-02-17T08:30:33.843Z,40.07
2018-02-17T08:33:01.312Z,43.07
2018-02-17T08:35:30.825Z,44.73
2018-02-17T08:37:59.071Z,33.03
2018-02-17T08:40:26.802Z,45.23
2018-02-17T08:42:54.356Z,45.53
2018-02-17T08:45:21.821Z,39.77
2018-02-17T08:47:49.314Z,34.40
2018-02-17T08:50:16.803Z,41.13
2018-02-17T08:52:45.044Z,58.53
2018-02-17T08:55:12.521Z,34.50
2018-02-17T08:57:40.799Z,42.43
2018-02-17T09:00:09.055Z,35.53
2018-02-17T09:02:36.556Z,24.47
2018-02-17T09:05:04.073Z,31.20
2018-02-17T09:07:31.538Z,28.30
2018-02-17T09:10:01.213Z,33.97
2018-02-17T09:12:28.690Z,27.10
2018-02-17T09:14:56.187Z,49.93
2018-02-17T09:17:24.433Z,51.53
2018-02-17T09:19:51.926Z,75.93
2018-02-17T09:22:20.164Z,67.53
2018-02-17T09:24:47.646Z,55.10
2018-02-17T09:27:15.130Z,58.53
2018-02-17T09:29:42.607Z,39.30
2018-02-17T09:32:10.100Z,39.27
2018-02-17T09:34:37.576Z,42.10
2018-02-17T09:37:05.072Z,44.43
2018-02-17T09:39:32.553Z,44.50
2018-02-17T09:42:00.058Z,33.83
2018-02-17T09:44:27.533Z,35.73
2018-02-17T09:46:56.465Z,39.10
2018-02-17T09:49:23.944Z,32.13
2018-02-17T09:51:51.442Z,29.93
2018-02-17T09:54:19.713Z,24.80
2018-02-17T09:56:47.963Z,38.03
2018-02-17T09:59:15.513Z,28.27
2018-02-17T10:01:43.008Z,32.67
2018-02-17T10:04:11.297Z,34.53
2018-02-17T10:06:39.551Z,30.87
2018-02-17T10:09:07.042Z,28.10
2018-02-17T10:11:34.520Z,30.13
2018-02-17T10:14:02.005Z,29.87
2018-02-17T10:16:29.478Z,27.93
2018-02-17T10:18:57.471Z,29.10
2018-02-17T10:21:25.832Z,54.87
2018-02-17T10:23:53.362Z,26.80
2018-02-17T10:26:20.923Z,26.77
2018-02-17T10:28:48.409Z,30.90
2018-02-17T10:31:15.904Z,34.80
2018-02-17T10:33:43.386Z,33.03
2018-02-17T10:36:10.879Z,28.00
2018-02-17T10:38:38.351Z,33.07
2018-02-17T10:41:06.599Z,31.50
2018-02-17T10:43:34.886Z,27.67
2018-02-17T10:46:02.379Z,31.50
2018-02-17T10:48:30.619Z,21.83
2018-02-17T10:50:58.110Z,40.07
2018-02-17T10:53:26.365Z,33.63
2018-02-17T10:55:53.863Z,26.63
2018-02-17T10:58:21.350Z,29.13
2018-02-17T11:00:48.822Z,29.40
2018-02-17T11:03:16.325Z,36.07
2018-02-17T11:05:44.571Z,31.10
2018-02-17T11:08:12.122Z,27.17
2018-02-17T11:10:39.610Z,40.13
2018-02-17T11:13:07.921Z,36.07
2018-02-17T11:15:35.609Z,38.10
2018-02-17T11:18:03.207Z,22.27
2018-02-17T11:20:31.550Z,24.67
2018-02-17T11:22:59.036Z,36.40
2018-02-17T11:25:26.570Z,22.37
2018-02-17T11:27:54.068Z,34.63
2018-02-17T11:30:21.602Z,35.50
2018-02-17T11:32:49.074Z,23.80
2018-02-17T11:35:16.564Z,31.13
2018-02-17T11:37:44.045Z,30.20
2018-02-17T11:40:11.497Z,21.33
2018-02-17T11:42:39.018Z,26.63
2018-02-17T11:45:07.268Z,22.73
2018-02-17T11:47:34.742Z,23.60
2018-02-17T11:50:02.238Z,26.30
2018-02-17T11:52:29.714Z,25.80
2018-02-17T11:54:57.206Z,21.27
2018-02-17T11:57:24.686Z,25.73
2018-02-17T11:59:52.938Z,18.40
2018-02-17T12:02:20.440Z,23.03
2018-02-17T12:04:48.888Z,22.97
2018-02-17T12:07:16.467Z,26.00
2018-02-17T12:09:43.936Z,26.27
2018-02-17T12:12:12.190Z,24.63
2018-02-17T12:14:39.659Z,27.40
2018-02-17T12:17:07.909Z,20.47
2018-02-17T12:19:35.369Z,23.03
2018-02-17T12:22:03.019Z,25.40
2018-02-17T12:24:30.487Z,38.33
2018-02-17T12:26:57.966Z,27.17
2018-02-17T12:29:25.445Z,33.07
2018-02-17T12:31:53.691Z,32.87
2018-02-17T12:34:21.188Z,28.90
2018-02-17T12:36:48.644Z,33.80
2018-02-17T12:39:16.159Z,29.43
2018-02-17T12:41:43.642Z,26.83
2018-02-17T12:44:11.895Z,21.83
2018-02-17T12:46:39.386Z,30.23
2018-02-17T12:49:07.639Z,31.60
2018-02-17T12:51:35.112Z,23.17
2018-02-17T12:54:02.596Z,28.87
2018-02-17T12:56:30.071Z,30.23
2018-02-17T12:58:57.563Z,33.00
2018-02-17T13:01:25.030Z,18.43
2018-02-17T13:03:52.498Z,31.27
2018-02-17T13:06:19.990Z,22.40
2018-02-17T13:08:47.484Z,31.30
2018-02-17T13:11:15.013Z,25.70
2018-02-17T13:13:42.503Z,24.03
2018-02-17T13:16:09.978Z,31.93
2018-02-17T13:18:37.443Z,24.90
2018-02-17T13:21:04.951Z,25.17
2018-02-17T13:23:32.419Z,24.57
2018-02-17T13:25:59.908Z,22.10
2018-02-17T13:28:27.383Z,26.57
2018-02-17T13:30:54.862Z,34.30
2018-02-17T13:33:28.361Z,20.90
2018-02-17T13:35:55.879Z,24.60
2018-02-17T13:38:23.355Z,20.73
2018-02-17T13:40:50.852Z,24.70
2018-02-17T13:43:18.345Z,28.40
2018-02-17T13:45:45.833Z,25.90
2018-02-17T13:48:13.322Z,24.10
2018-02-17T13:50:40.808Z,18.73
2018-02-17T13:53:08.298Z,23.50
2018-02-17T13:55:35.757Z,26.30
2018-02-17T13:58:03.335Z,27.03
2018-02-17T14:00:30.816Z,21.10
2018-02-17T14:02:59.062Z,25.67
2018-02-17T14:05:26.535Z,24.73
2018-02-17T14:07:54.790Z,23.20
2018-02-17T14:10:22.260Z,28.43
2018-02-17T14:12:49.754Z,20.30
2018-02-17T14:15:17.282Z,27.43
2018-02-17T14:17:45.454Z,21.33
2018-02-17T14:20:12.942Z,24.00
2018-02-17T14:22:41.192Z,30.27
2018-02-17T14:25:08.710Z,28.27
2018-02-17T14:27:36.196Z,30.57
2018-02-17T14:30:03.748Z,27.83
2018-02-17T14:32:31.246Z,24.67
2018-02-17T14:34:58.777Z,30.43
2018-02-17T14:37:26.246Z,31.87
2018-02-17T14:39:53.795Z,27.53
2018-02-17T14:42:21.324Z,29.40
2018-02-17T14:44:48.828Z,32.00
2018-02-17T14:47:17.091Z,31.20
2018-02-17T14:49:44.584Z,29.17
2018-02-17T14:52:12.817Z,23.07
2018-02-17T14:54:40.304Z,30.00
2018-02-17T14:57:08.565Z,30.80
2018-02-17T14:59:36.024Z,33.77
2018-02-17T15:02:03.507Z,34.17
2018-02-17T15:04:31.758Z,28.13
2018-02-17T15:06:59.219Z,35.03
2018-02-17T15:09:26.707Z,32.90
2018-02-17T15:11:54.192Z,30.90
2018-02-17T15:14:21.707Z,27.13
2018-02-17T15:16:49.177Z,39.00
2018-02-17T15:19:17.416Z,24.73
2018-02-17T15:21:44.897Z,32.03
2018-02-17T15:24:12.358Z,29.87
2018-02-17T15:26:39.846Z,41.70
2018-02-17T15:29:07.371Z,25.73
2018-02-17T15:31:34.846Z,31.37
2018-02-17T15:34:03.086Z,24.83
2018-02-17T15:36:30.563Z,26.50
2018-02-17T15:38:58.049Z,29.37
2018-02-17T15:41:25.528Z,26.43
2018-02-17T15:43:53.012Z,28.13
2018-02-17T15:46:20.480Z,31.27
2018-02-17T15:48:47.970Z,36.63
2018-02-17T15:51:16.202Z,31.90
2018-02-17T15:53:43.689Z,27.90
2018-02-17T15:56:11.186Z,41.37
2018-02-17T15:58:38.682Z,23.67
2018-02-17T16:01:06.897Z,26.20
2018-02-17T16:03:35.259Z,30.50
2018-02-17T16:06:02.731Z,26.30
2018-02-17T16:08:31.054Z,29.50
2018-02-17T16:10:58.535Z,27.63
2018-02-17T16:13:26.028Z,26.50
2018-02-17T16:15:54.290Z,41.43
2018-02-17T16:18:21.759Z,25.03
2018-02-17T16:20:50.024Z,24.43
2018-02-17T16:23:17.482Z,33.63
2018-02-17T16:25:45.020Z,27.53
2018-02-17T16:28:13.266Z,30.10
2018-02-17T16:30:40.854Z,39.97
2018-02-17T16:33:08.328Z,28.53
2018-02-17T16:35:35.815Z,32.57
2018-02-17T16:38:04.067Z,35.47
2018-02-17T16:40:31.530Z,36.57
2018-02-17T16:42:59.081Z,28.47
2018-02-17T16:45:26.560Z,26.53
2018-02-17T16:47:54.094Z,33.43
2018-02-17T16:50:22.369Z,34.63
2018-02-17T16:52:49.854Z,36.70
2018-02-17T16:55:18.082Z,29.43
2018-02-17T16:57:45.562Z,29.27
2018-02-17T17:00:13.998Z,36.43
2018-02-17T17:02:41.502Z,39.73
2018-02-17T17:05:08.975Z,35.13
2018-02-17T17:07:36.529Z,32.00
2018-02-17T17:10:04.059Z,40.33
2018-02-17T17:12:31.539Z,39.23
2018-02-17T17:14:59.131Z,55.50
2018-02-17T17:17:26.608Z,52.10
2018-02-17T17:19:54.074Z,41.37
2018-02-17T17:22:21.559Z,36.50
2018-02-17T17:24:49.042Z,38.00
2018-02-17T17:27:16.516Z,41.23
2018-02-17T17:29:44.008Z,37.23
2018-02-17T17:32:13.331Z,42.13
2018-02-17T17:34:42.610Z,39.77
2018-02-17T17:37:11.100Z,44.47
2018-02-17T17:39:38.575Z,53.13
2018-02-17T17:42:06.037Z,59.93
2018-02-17T17:44:33.558Z,56.80
2018-02-17T17:47:01.029Z,51.27
2018-02-17T17:49:28.536Z,50.97
2018-02-17T17:51:56.008Z,51.80
2018-02-17T17:54:23.482Z,55.20
2018-02-17T17:56:51.803Z,48.77
2018-02-17T17:59:19.309Z,54.40
2018-02-17T18:01:47.559Z,67.70
2018-02-17T18:04:15.058Z,65.20
2018-02-17T18:06:43.301Z,49.30
2018-02-17T18:09:10.788Z,62.07
2018-02-17T18:11:39.023Z,55.93
2018-02-17T18:14:06.552Z,59.97
2018-02-17T18:16:34.057Z,55.53
2018-02-17T18:19:01.642Z,63.17
2018-02-17T18:21:29.880Z,56.33
2018-02-17T18:23:57.376Z,63.87
2018-02-17T18:26:24.879Z,63.70
2018-02-17T18:28:52.372Z,66.20
2018-02-17T18:31:20.712Z,50.63
2018-02-17T18:33:48.195Z,61.33
2018-02-17T18:36:15.669Z,63.63
2018-02-17T18:38:43.230Z,53.00
2018-02-17T18:41:10.702Z,60.97
2018-02-17T18:43:38.956Z,61.53
2018-02-17T18:46:07.978Z,77.63
2018-02-17T18:48:36.579Z,59.93
2018-02-17T18:51:04.054Z,66.83
2018-02-17T18:53:31.822Z,57.07
2018-02-17T18:55:59.336Z,74.30
2018-02-17T18:58:27.576Z,74.60
2018-02-17T19:00:55.053Z,69.27
2018-02-17T19:03:22.536Z,74.83
2018-02-17T19:05:50.795Z,70.20
2018-02-17T19:08:18.610Z,71.03
2018-02-17T19:10:46.306Z,64.70
2018-02-17T19:13:13.869Z,76.37
2018-02-17T19:15:41.410Z,84.97
2018-02-17T19:18:08.905Z,74.27
2018-02-17T19:20:36.448Z,70.70
2018-02-17T19:23:04.022Z,65.87
2018-02-17T19:25:31.512Z,70.77
2018-02-17T19:28:00.332Z,66.97
2018-02-17T19:30:27.866Z,74.90
2018-02-17T19:32:55.366Z,70.77
2018-02-17T19:35:23.123Z,85.77
2018-02-17T19:37:50.723Z,94.67
2018-02-17T19:40:18.203Z,84.50
2018-02-17T19:42:46.474Z,75.90
2018-02-17T19:45:14.842Z,73.63
2018-02-17T19:47:42.345Z,60.30
2018-02-17T19:50:09.838Z,62.60
2018-02-17T19:52:37.555Z,73.83
2018-02-17T19:55:05.062Z,73.03
2018-02-17T19:57:33.291Z,72.63
2018-02-17T20:00:01.733Z,68.27
2018-02-17T20:02:29.702Z,75.70
2018-02-17T20:04:58.362Z,79.53
2018-02-17T20:07:27.383Z,69.17
2018-02-17T20:09:54.956Z,77.03
2018-02-17T20:12:22.841Z,86.27
2018-02-17T20:14:51.230Z,76.47
2018-02-17T20:17:18.761Z,87.40
2018-02-17T20:19:46.329Z,67.50
2018-02-17T20:22:14.577Z,75.13
2018-02-17T20:24:42.051Z,72.03
2018-02-17T20:27:09.646Z,96.23
2018-02-17T20:29:37.198Z,78.87
2018-02-17T20:32:05.445Z,92.77
2018-02-17T20:34:32.959Z,93.37
2018-02-17T20:37:00.475Z,89.97
2018-02-17T20:39:29.239Z,81.63
2018-02-17T20:41:56.795Z,83.47
2018-02-17T20:44:24.400Z,87.93
2018-02-17T20:46:52.654Z,84.80
2018-02-17T20:49:20.143Z,90.47
2018-02-17T20:51:48.426Z,98.97
2018-02-17T20:54:15.909Z,94.40
2018-02-17T20:56:43.439Z,108.23
2018-02-17T20:59:10.947Z,103.00
2018-02-17T21:01:38.608Z,98.13
2018-02-17T21:04:06.109Z,108.87
2018-02-17T21:06:34.395Z,77.93
2018-02-17T21:09:01.907Z,101.70
2018-02-17T21:11:29.389Z,87.07
2018-02-17T21:13:57.653Z,79.13
2018-02-17T21:16:25.920Z,77.37
2018-02-17T21:18:53.506Z,84.00
2018-02-17T21:21:21.810Z,91.23
2018-02-17T21:23:50.873Z,99.07
2018-02-17T21:26:19.275Z,102.67
2018-02-17T21:28:47.095Z,78.40
2018-02-17T21:31:14.571Z,114.20
2018-02-17T21:33:44.610Z,97.53
2018-02-17T21:36:12.844Z,105.13
2018-02-17T21:38:40.332Z,91.27
2018-02-17T21:41:07.812Z,99.43
2018-02-17T21:43:35.287Z,106.43
2018-02-17T21:46:02.776Z,126.80
2018-02-17T21:48:31.412Z,100.60
2018-02-17T21:50:58.932Z,105.53
2018-02-17T21:53:26.407Z,86.03
2018-02-17T21:55:53.895Z,100.00
2018-02-17T21:58:21.376Z,97.57
2018-02-17T22:00:49.216Z,95.70
2018-02-17T22:03:17.466Z,104.13
2018-02-17T22:05:44.955Z,90.67
2018-02-17T22:08:12.427Z,95.77
2018-02-17T22:10:39.894Z,84.70
2018-02-17T22:13:07.393Z,88.10
2018-02-17T22:15:35.190Z,82.13
2018-02-17T22:18:03.426Z,91.27
2018-02-17T22:20:30.899Z,85.97
2018-02-17T22:22:58.380Z,83.87
2018-02-17T22:25:26.630Z,84.03
2018-02-17T22:27:54.113Z,78.30
2018-02-17T22:30:21.586Z,82.03
2018-02-17T22:32:49.129Z,65.07
2018-02-17T22:35:17.405Z,65.93
2018-02-17T22:37:45.076Z,61.37
2018-02-17T22:40:13.318Z,69.17
2018-02-17T22:42:40.811Z,61.83
2018-02-17T22:45:09.066Z,59.30
2018-02-17T22:47:36.565Z,63.10
2018-02-17T22:50:04.103Z,58.50
2018-02-17T22:52:31.568Z,70.37
2018-02-17T22:54:59.811Z,57.53
2018-02-17T22:57:27.311Z,55.67
2018-02-17T22:59:55.076Z,61.03
2018-02-17T23:02:22.596Z,59.70
2018-02-17T23:04:50.863Z,53.83
2018-02-17T23:07:18.341Z,55.60
2018-02-17T23:09:45.832Z,67.30
2018-02-17T23:12:13.366Z,41.73
2018-02-17T23:14:40.806Z,45.13
2018-02-17T23:17:08.720Z,53.07
2018-02-17T23:19:36.193Z,47.53
2018-02-17T23:22:03.678Z,54.07
2018-02-17T23:24:31.171Z,49.93
2018-02-17T23:26:59.408Z,50.90
2018-02-17T23:29:26.895Z,50.63
2018-02-17T23:31:54.367Z,49.23
2018-02-17T23:34:22.615Z,43.67
2018-02-17T23:36:50.132Z,46.10
2018-02-17T23:39:17.908Z,46.97
2018-02-17T23:41:45.401Z,39.07
2018-02-17T23:44:12.895Z,49.87
2018-02-17T23:46:41.129Z,38.33
2018-02-17T23:49:08.600Z,45.10
2018-02-17T23:51:36.074Z,40.70
2018-02-17T23:54:04.325Z,44.03
2018-02-17T23:56:31.809Z,50.63
2018-02-17T23:59:00.512Z,38.40
